Observations for LONDON HEATHROW, United Kingdom (EGLL)

EGLL 221420Z AUTO 35006KT 310V050 9999 NCD 13/03 Q1037 NOSIG
EGLL 221350Z AUTO 01005KT 320V060 9999 NCD 13/03 Q1037 NOSIG
EGLL 221320Z AUTO 34006KT 300V050 9999 NCD 13/03 Q1037 NOSIG
EGLL 221250Z AUTO 01007KT 330V060 9999 NCD 13/03 Q1037 NOSIG
EGLL 221220Z AUTO 02007KT 340V070 9999 NCD 13/02 Q1037 NOSIG
EGLL 221150Z AUTO 36008KT 320V040 9999 NCD 13/03 Q1037 NOSIG
EGLL 221120Z AUTO 02008KT 340V070 9999 NCD 13/03 Q1038 NOSIG
EGLL 221050Z AUTO 02007KT 340V070 9999 NCD 12/03 Q1038 NOSIG
EGLL 221020Z AUTO 01007KT 330V040 9999 NCD 12/03 Q1037 NOSIG
EGLL 220950Z AUTO 03005KT 320V080 9999 NCD 11/03 Q1037 NOSIG
EGLL 220920Z AUTO 04006KT 350V070 9999 NCD 11/04 Q1038 NOSIG
EGLL 220850Z AUTO 36005KT 330V030 9999 NCD 09/03 Q1038 NOSIG
EGLL 220820Z AUTO 36005KT 330V030 9999 NCD 08/03 Q1037 NOSIG
EGLL 220750Z AUTO 36005KT 320V030 9999 NCD 08/03 Q1037 NOSIG
EGLL 220720Z AUTO VRB03KT 9999 NCD 07/03 Q1036 NOSIG
EGLL 220650Z AUTO VRB02KT 9999 NCD 07/03 Q1036 NOSIG
EGLL 220620Z AUTO VRB03KT 9999 NCD 07/04 Q1035 NOSIG
EGLL 220550Z AUTO VRB03KT 9999 NCD 07/04 Q1035 NOSIG
EGLL 220520Z AUTO VRB02KT 9999 NCD 07/04 Q1035 NOSIG
EGLL 220450Z AUTO VRB03KT 9999 NCD 07/04 Q1035 NOSIG
EGLL 220420Z AUTO VRB03KT 9999 NCD 08/04 Q1034 NOSIG
EGLL 220350Z AUTO 36006KT 330V050 9999 NCD 09/04 Q1034 NOSIG
EGLL 220320Z AUTO 02006KT 340V050 9999 FEW037 09/05 Q1034 NOSIG 
EGLL 220250Z AUTO 01009KT 340V040 9999 NCD 10/05 Q1033 NOSIG
EGLL 220220Z AUTO 36009KT 340V040 9999 SCT035 11/06 Q1033 NOSIG 
EGLL 220150Z AUTO 36008KT 330V030 9999 OVC033 12/07 Q1033 NOSIG 
EGLL 220120Z AUTO 36007KT 320V040 9999 BKN032 12/07 Q1032 NOSIG 
EGLL 220050Z AUTO 35006KT 310V030 9999 BKN031 12/08 Q1032 NOSIG 
EGLL 220020Z AUTO 36007KT 320V030 9999 OVC025 12/08 Q1032 NOSIG 
EGLL 212350Z AUTO 36007KT 320V040 9999 OVC020 12/08 Q1031 NOSIG 
EGLL 212320Z AUTO 36008KT 320V050 9999 OVC021 13/08 Q1031 NOSIG 
EGLL 212250Z AUTO 35007KT 310V030 9999 BKN023 OVC042 13/09 Q1031 NOSIG  
EGLL 212220Z AUTO 34006KT 290V020 9999 -RA FEW028 SCT034 BKN041 13/09 Q1030 NOSIG   
EGLL 212150Z AUTO 32009KT 9999 -RA SCT011 SCT016 BKN028 13/10 Q1030 TEMPO BKN011
EGLL 212120Z AUTO 34007KT 300V030 9999 BKN010 OVC042 14/12 Q1029 NOSIG  
EGLL 212050Z AUTO 34008KT 300V020 9999 SCT015 BKN021 16/12 Q1029 TEMPO -RA BKN014   
EGLL 212020Z AUTO 32005KT 300V020 9999 BKN023 BKN030 16/12 Q1028 NOSIG  
EGLL 211950Z AUTO 32005KT 290V010 9999 OVC028 16/12 Q1028 NOSIG 
EGLL 211920Z AUTO 32003KT 9999 OVC027 16/11 Q1028 NOSIG 
EGLL 211850Z AUTO 32004KT 280V360 9999 OVC030 16/11 Q1028 NOSIG 
EGLL 211820Z AUTO 31003KT 9999 OVC030 15/12 Q1028 NOSIG 
EGLL 211750Z AUTO 31003KT 9999 BKN032 15/11 Q1027 NOSIG 
EGLL 211720Z AUTO 32003KT 9999 NCD 16/11 Q1027 NOSIG
EGLL 211650Z AUTO 30004KT 9999 NCD 17/11 Q1027 NOSIG
EGLL 211620Z AUTO 28007KT 9999 NCD 17/11 Q1026 NOSIG
EGLL 211550Z AUTO 27007KT 9999 NCD 18/11 Q1026 NOSIG
EGLL 211520Z AUTO 27008KT 9999 NCD 18/11 Q1026 NOSIG
EGLL 211450Z AUTO 25008KT 9999 NCD 18/11 Q1026 NOSIG
EGLL 211420Z AUTO 27007KT 240V310 9999 NCD 18/11 Q1026 NOSIG
EGLL 211350Z AUTO 26007KT 220V280 9999 NCD 18/11 Q1027 NOSIG